sensor_id;sensor_type;location;lat;lon;timestamp;P1;durP1;ratioP1;P2;durP2;ratioP2
71172;SDS011;58875;51.996;4.504;2022-10-16T00:00:46;2.11;;;2.11;;
71172;SDS011;58875;51.996;4.504;2022-10-16T00:03:11;1.95;;;1.95;;
71172;SDS011;58875;51.996;4.504;2022-10-16T00:05:38;2.04;;;2.04;;
71172;SDS011;58875;51.996;4.504;2022-10-16T00:08:06;2.10;;;2.10;;
71172;SDS011;58875;51.996;4.504;2022-10-16T00:10:33;2.09;;;2.09;;
71172;SDS011;58875;51.996;4.504;2022-10-16T00:12:59;2.01;;;2.01;;
71172;SDS011;58875;51.996;4.504;2022-10-16T00:15:25;2.06;;;2.06;;
71172;SDS011;58875;51.996;4.504;2022-10-16T00:17:51;1.96;;;1.96;;
71172;SDS011;58875;51.996;4.504;2022-10-16T00:20:16;1.94;;;1.94;;
71172;SDS011;58875;51.996;4.504;2022-10-16T00:22:42;1.79;;;1.79;;
71172;SDS011;58875;51.996;4.504;2022-10-16T00:25:08;1.80;;;1.80;;
71172;SDS011;58875;51.996;4.504;2022-10-16T00:27:34;1.70;;;1.70;;
71172;SDS011;58875;51.996;4.504;2022-10-16T00:29:59;1.45;;;1.45;;
71172;SDS011;58875;51.996;4.504;2022-10-16T00:32:25;1.44;;;1.44;;
71172;SDS011;58875;51.996;4.504;2022-10-16T00:34:51;1.27;;;1.27;;
71172;SDS011;58875;51.996;4.504;2022-10-16T00:37:20;1.12;;;1.12;;
71172;SDS011;58875;51.996;4.504;2022-10-16T00:39:46;1.20;;;1.20;;
71172;SDS011;58875;51.996;4.504;2022-10-16T00:42:15;1.02;;;1.02;;
71172;SDS011;58875;51.996;4.504;2022-10-16T00:44:51;1.02;;;1.02;;
71172;SDS011;58875;51.996;4.504;2022-10-16T00:49:55;1.13;;;1.13;;
71172;SDS011;58875;51.996;4.504;2022-10-16T00:52:27;1.21;;;1.21;;
71172;SDS011;58875;51.996;4.504;2022-10-16T00:54:53;1.36;;;1.36;;
71172;SDS011;58875;51.996;4.504;2022-10-16T00:57:21;1.54;;;1.54;;
71172;SDS011;58875;51.996;4.504;2022-10-16T00:59:48;1.72;;;1.72;;
71172;SDS011;58875;51.996;4.504;2022-10-16T01:02:14;1.88;;;1.88;;
71172;SDS011;58875;51.996;4.504;2022-10-16T01:04:48;1.77;;;1.77;;
71172;SDS011;58875;51.996;4.504;2022-10-16T01:10:24;1.87;;;1.87;;
71172;SDS011;58875;51.996;4.504;2022-10-16T01:13:07;1.99;;;1.99;;
71172;SDS011;58875;51.996;4.504;2022-10-16T01:18:42;2.22;;;2.22;;
71172;SDS011;58875;51.996;4.504;2022-10-16T01:21:50;1.93;;;1.93;;
71172;SDS011;58875;51.996;4.504;2022-10-16T01:32:20;2.00;;;2.00;;
71172;SDS011;58875;51.996;4.504;2022-10-16T01:35:00;1.83;;;1.83;;
71172;SDS011;58875;51.996;4.504;2022-10-16T01:37:38;1.94;;;1.94;;
71172;SDS011;58875;51.996;4.504;2022-10-16T01:40:10;1.79;;;1.79;;
71172;SDS011;58875;51.996;4.504;2022-10-16T01:42:40;2.01;;;2.01;;
71172;SDS011;58875;51.996;4.504;2022-10-16T01:45:11;2.04;;;2.04;;
71172;SDS011;58875;51.996;4.504;2022-10-16T01:47:43;1.99;;;1.99;;
71172;SDS011;58875;51.996;4.504;2022-10-16T01:50:10;2.28;;;2.28;;
71172;SDS011;58875;51.996;4.504;2022-10-16T01:52:43;2.03;;;2.03;;
71172;SDS011;58875;51.996;4.504;2022-10-16T01:55:17;2.19;;;2.19;;
71172;SDS011;58875;51.996;4.504;2022-10-16T01:57:50;2.21;;;2.21;;
71172;SDS011;58875;51.996;4.504;2022-10-16T02:00:19;2.42;;;2.42;;
71172;SDS011;58875;51.996;4.504;2022-10-16T02:02:48;2.47;;;2.47;;
71172;SDS011;58875;51.996;4.504;2022-10-16T02:05:20;2.44;;;2.44;;
71172;SDS011;58875;51.996;4.504;2022-10-16T02:08:11;2.41;;;2.41;;
71172;SDS011;58875;51.996;4.504;2022-10-16T02:10:38;2.59;;;2.59;;
71172;SDS011;58875;51.996;4.504;2022-10-16T02:13:17;2.64;;;2.64;;
71172;SDS011;58875;51.996;4.504;2022-10-16T02:15:49;2.79;;;2.79;;
71172;SDS011;58875;51.996;4.504;2022-10-16T02:18:14;2.73;;;2.73;;
71172;SDS011;58875;51.996;4.504;2022-10-16T02:20:55;2.46;;;2.46;;
71172;SDS011;58875;51.996;4.504;2022-10-16T02:23:38;2.59;;;2.59;;
71172;SDS011;58875;51.996;4.504;2022-10-16T02:26:26;2.73;;;2.73;;
71172;SDS011;58875;51.996;4.504;2022-10-16T02:29:16;2.47;;;2.47;;
71172;SDS011;58875;51.996;4.504;2022-10-16T02:31:48;2.48;;;2.48;;
71172;SDS011;58875;51.996;4.504;2022-10-16T02:34:18;2.49;;;2.49;;
71172;SDS011;58875;51.996;4.504;2022-10-16T02:36:49;2.56;;;2.56;;
71172;SDS011;58875;51.996;4.504;2022-10-16T02:39:17;2.39;;;2.39;;
71172;SDS011;58875;51.996;4.504;2022-10-16T02:41:44;2.53;;;2.53;;
71172;SDS011;58875;51.996;4.504;2022-10-16T02:44:10;2.44;;;2.44;;
71172;SDS011;58875;51.996;4.504;2022-10-16T02:46:36;2.36;;;2.36;;
71172;SDS011;58875;51.996;4.504;2022-10-16T02:49:02;2.27;;;2.27;;
71172;SDS011;58875;51.996;4.504;2022-10-16T02:51:28;2.50;;;2.50;;
71172;SDS011;58875;51.996;4.504;2022-10-16T02:53:53;2.24;;;2.24;;
71172;SDS011;58875;51.996;4.504;2022-10-16T02:56:19;2.24;;;2.24;;
71172;SDS011;58875;51.996;4.504;2022-10-16T02:58:47;2.14;;;2.14;;
71172;SDS011;58875;51.996;4.504;2022-10-16T03:01:13;2.01;;;2.01;;
71172;SDS011;58875;51.996;4.504;2022-10-16T03:03:39;2.17;;;2.17;;
71172;SDS011;58875;51.996;4.504;2022-10-16T03:06:04;2.05;;;2.05;;
71172;SDS011;58875;51.996;4.504;2022-10-16T03:08:31;2.16;;;2.16;;
71172;SDS011;58875;51.996;4.504;2022-10-16T03:10:56;2.04;;;2.04;;
71172;SDS011;58875;51.996;4.504;2022-10-16T03:13:22;1.91;;;1.91;;
71172;SDS011;58875;51.996;4.504;2022-10-16T03:15:48;2.10;;;2.10;;
71172;SDS011;58875;51.996;4.504;2022-10-16T03:18:14;2.17;;;2.17;;
71172;SDS011;58875;51.996;4.504;2022-10-16T03:20:40;2.12;;;2.12;;
71172;SDS011;58875;51.996;4.504;2022-10-16T03:23:05;2.04;;;2.04;;
71172;SDS011;58875;51.996;4.504;2022-10-16T03:25:33;2.19;;;2.19;;
71172;SDS011;58875;51.996;4.504;2022-10-16T03:27:59;2.08;;;2.08;;
71172;SDS011;58875;51.996;4.504;2022-10-16T03:30:24;2.37;;;2.37;;
71172;SDS011;58875;51.996;4.504;2022-10-16T03:32:50;2.34;;;2.34;;
71172;SDS011;58875;51.996;4.504;2022-10-16T03:35:19;2.27;;;2.27;;
71172;SDS011;58875;51.996;4.504;2022-10-16T03:37:45;2.11;;;2.11;;
71172;SDS011;58875;51.996;4.504;2022-10-16T03:40:11;2.15;;;2.15;;
71172;SDS011;58875;51.996;4.504;2022-10-16T03:42:37;1.99;;;1.99;;
71172;SDS011;58875;51.996;4.504;2022-10-16T03:45:07;2.26;;;2.26;;
71172;SDS011;58875;51.996;4.504;2022-10-16T03:47:34;2.21;;;2.21;;
71172;SDS011;58875;51.996;4.504;2022-10-16T03:49:59;1.99;;;1.99;;
71172;SDS011;58875;51.996;4.504;2022-10-16T03:52:25;1.98;;;1.98;;
71172;SDS011;58875;51.996;4.504;2022-10-16T03:54:51;1.89;;;1.89;;
71172;SDS011;58875;51.996;4.504;2022-10-16T03:57:17;2.05;;;2.04;;
71172;SDS011;58875;51.996;4.504;2022-10-16T03:59:43;1.84;;;1.83;;
71172;SDS011;58875;51.996;4.504;2022-10-16T04:02:08;1.97;;;1.97;;
71172;SDS011;58875;51.996;4.504;2022-10-16T04:04:34;2.02;;;2.02;;
71172;SDS011;58875;51.996;4.504;2022-10-16T04:07:01;1.97;;;1.97;;
71172;SDS011;58875;51.996;4.504;2022-10-16T04:09:29;2.04;;;2.04;;
71172;SDS011;58875;51.996;4.504;2022-10-16T04:11:55;2.08;;;2.08;;
71172;SDS011;58875;51.996;4.504;2022-10-16T04:14:20;2.02;;;2.02;;
71172;SDS011;58875;51.996;4.504;2022-10-16T04:16:46;2.23;;;2.23;;
71172;SDS011;58875;51.996;4.504;2022-10-16T04:19:11;2.32;;;2.32;;
71172;SDS011;58875;51.996;4.504;2022-10-16T04:21:37;2.24;;;2.24;;
71172;SDS011;58875;51.996;4.504;2022-10-16T04:24:03;2.56;;;2.56;;
71172;SDS011;58875;51.996;4.504;2022-10-16T04:26:29;2.50;;;2.50;;
71172;SDS011;58875;51.996;4.504;2022-10-16T04:28:58;2.46;;;2.46;;
71172;SDS011;58875;51.996;4.504;2022-10-16T04:31:23;2.38;;;2.38;;
71172;SDS011;58875;51.996;4.504;2022-10-16T04:33:49;2.21;;;2.21;;
71172;SDS011;58875;51.996;4.504;2022-10-16T04:36:15;2.45;;;2.45;;
71172;SDS011;58875;51.996;4.504;2022-10-16T04:38:40;2.58;;;2.58;;
71172;SDS011;58875;51.996;4.504;2022-10-16T04:41:06;2.17;;;2.17;;
71172;SDS011;58875;51.996;4.504;2022-10-16T04:43:33;2.24;;;2.24;;
71172;SDS011;58875;51.996;4.504;2022-10-16T04:45:59;2.11;;;2.11;;
71172;SDS011;58875;51.996;4.504;2022-10-16T04:48:24;2.24;;;2.24;;
71172;SDS011;58875;51.996;4.504;2022-10-16T04:50:50;2.32;;;2.32;;
71172;SDS011;58875;51.996;4.504;2022-10-16T04:53:15;2.23;;;2.23;;
71172;SDS011;58875;51.996;4.504;2022-10-16T04:55:42;2.32;;;2.32;;
71172;SDS011;58875;51.996;4.504;2022-10-16T04:58:08;2.26;;;2.26;;
71172;SDS011;58875;51.996;4.504;2022-10-16T05:00:34;2.27;;;2.27;;
71172;SDS011;58875;51.996;4.504;2022-10-16T05:03:00;2.42;;;2.42;;
71172;SDS011;58875;51.996;4.504;2022-10-16T05:05:26;2.35;;;2.35;;
71172;SDS011;58875;51.996;4.504;2022-10-16T05:07:53;2.29;;;2.29;;
71172;SDS011;58875;51.996;4.504;2022-10-16T05:10:19;2.31;;;2.31;;
71172;SDS011;58875;51.996;4.504;2022-10-16T05:12:45;2.42;;;2.42;;
71172;SDS011;58875;51.996;4.504;2022-10-16T05:15:11;2.27;;;2.27;;
71172;SDS011;58875;51.996;4.504;2022-10-16T05:17:36;2.38;;;2.38;;
71172;SDS011;58875;51.996;4.504;2022-10-16T05:20:02;2.45;;;2.45;;
71172;SDS011;58875;51.996;4.504;2022-10-16T05:22:28;2.30;;;2.30;;
71172;SDS011;58875;51.996;4.504;2022-10-16T05:24:54;2.26;;;2.26;;
71172;SDS011;58875;51.996;4.504;2022-10-16T05:27:19;2.55;;;2.55;;
71172;SDS011;58875;51.996;4.504;2022-10-16T05:29:46;2.32;;;2.32;;
71172;SDS011;58875;51.996;4.504;2022-10-16T05:32:16;2.21;;;2.21;;
71172;SDS011;58875;51.996;4.504;2022-10-16T05:34:43;2.33;;;2.33;;
71172;SDS011;58875;51.996;4.504;2022-10-16T05:37:10;2.20;;;2.20;;
71172;SDS011;58875;51.996;4.504;2022-10-16T05:39:37;2.32;;;2.32;;
71172;SDS011;58875;51.996;4.504;2022-10-16T05:42:03;2.27;;;2.27;;
71172;SDS011;58875;51.996;4.504;2022-10-16T05:44:29;2.30;;;2.30;;
71172;SDS011;58875;51.996;4.504;2022-10-16T05:46:55;2.28;;;2.28;;
71172;SDS011;58875;51.996;4.504;2022-10-16T05:49:20;2.22;;;2.22;;
71172;SDS011;58875;51.996;4.504;2022-10-16T05:51:46;2.29;;;2.29;;
71172;SDS011;58875;51.996;4.504;2022-10-16T05:54:11;2.23;;;2.23;;
71172;SDS011;58875;51.996;4.504;2022-10-16T05:56:40;2.28;;;2.28;;
71172;SDS011;58875;51.996;4.504;2022-10-16T05:59:05;2.32;;;2.32;;
71172;SDS011;58875;51.996;4.504;2022-10-16T06:01:31;2.03;;;2.03;;
71172;SDS011;58875;51.996;4.504;2022-10-16T06:03:57;2.27;;;2.27;;
71172;SDS011;58875;51.996;4.504;2022-10-16T06:06:23;2.01;;;2.01;;
71172;SDS011;58875;51.996;4.504;2022-10-16T06:08:51;2.43;;;2.43;;
71172;SDS011;58875;51.996;4.504;2022-10-16T06:11:18;2.22;;;2.22;;
71172;SDS011;58875;51.996;4.504;2022-10-16T06:13:50;2.35;;;2.35;;
71172;SDS011;58875;51.996;4.504;2022-10-16T06:16:19;2.12;;;2.12;;
71172;SDS011;58875;51.996;4.504;2022-10-16T06:18:45;2.40;;;2.40;;
71172;SDS011;58875;51.996;4.504;2022-10-16T06:21:14;2.27;;;2.27;;
71172;SDS011;58875;51.996;4.504;2022-10-16T06:23:42;1.94;;;1.94;;
71172;SDS011;58875;51.996;4.504;2022-10-16T06:26:09;2.05;;;2.05;;
71172;SDS011;58875;51.996;4.504;2022-10-16T06:28:37;2.00;;;2.00;;
71172;SDS011;58875;51.996;4.504;2022-10-16T06:31:04;2.07;;;2.07;;
71172;SDS011;58875;51.996;4.504;2022-10-16T06:33:31;2.08;;;2.08;;
71172;SDS011;58875;51.996;4.504;2022-10-16T06:36:04;1.96;;;1.94;;
71172;SDS011;58875;51.996;4.504;2022-10-16T06:38:31;2.02;;;1.94;;
71172;SDS011;58875;51.996;4.504;2022-10-16T06:40:57;1.92;;;1.91;;
71172;SDS011;58875;51.996;4.504;2022-10-16T06:43:24;2.03;;;1.99;;
71172;SDS011;58875;51.996;4.504;2022-10-16T06:45:53;1.81;;;1.76;;
71172;SDS011;58875;51.996;4.504;2022-10-16T06:48:20;1.99;;;1.98;;
71172;SDS011;58875;51.996;4.504;2022-10-16T06:53:24;2.21;;;2.21;;
71172;SDS011;58875;51.996;4.504;2022-10-16T06:55:51;2.13;;;2.13;;
71172;SDS011;58875;51.996;4.504;2022-10-16T06:58:17;2.06;;;2.06;;
71172;SDS011;58875;51.996;4.504;2022-10-16T07:00:43;2.03;;;1.99;;
71172;SDS011;58875;51.996;4.504;2022-10-16T07:03:08;2.23;;;2.15;;
71172;SDS011;58875;51.996;4.504;2022-10-16T07:05:38;2.21;;;2.11;;
71172;SDS011;58875;51.996;4.504;2022-10-16T07:08:04;2.48;;;2.35;;
71172;SDS011;58875;51.996;4.504;2022-10-16T07:10:30;2.12;;;2.00;;
71172;SDS011;58875;51.996;4.504;2022-10-16T07:12:56;2.37;;;2.22;;
71172;SDS011;58875;51.996;4.504;2022-10-16T07:15:22;2.49;;;2.36;;
71172;SDS011;58875;51.996;4.504;2022-10-16T07:17:48;2.47;;;2.45;;
71172;SDS011;58875;51.996;4.504;2022-10-16T07:20:13;2.44;;;2.44;;
71172;SDS011;58875;51.996;4.504;2022-10-16T07:22:39;2.49;;;2.49;;
71172;SDS011;58875;51.996;4.504;2022-10-16T07:25:04;2.50;;;2.50;;
71172;SDS011;58875;51.996;4.504;2022-10-16T07:27:30;2.62;;;2.62;;
71172;SDS011;58875;51.996;4.504;2022-10-16T07:29:56;2.69;;;2.69;;
71172;SDS011;58875;51.996;4.504;2022-10-16T07:32:21;2.54;;;2.54;;
71172;SDS011;58875;51.996;4.504;2022-10-16T07:34:47;2.50;;;2.50;;
71172;SDS011;58875;51.996;4.504;2022-10-16T07:37:12;2.48;;;2.48;;
71172;SDS011;58875;51.996;4.504;2022-10-16T07:39:38;2.51;;;2.51;;
71172;SDS011;58875;51.996;4.504;2022-10-16T07:42:03;2.31;;;2.31;;
71172;SDS011;58875;51.996;4.504;2022-10-16T07:44:29;2.34;;;2.34;;
71172;SDS011;58875;51.996;4.504;2022-10-16T07:46:54;2.43;;;2.43;;
71172;SDS011;58875;51.996;4.504;2022-10-16T07:49:20;2.25;;;2.25;;
71172;SDS011;58875;51.996;4.504;2022-10-16T07:51:45;2.40;;;2.36;;
71172;SDS011;58875;51.996;4.504;2022-10-16T07:54:11;2.59;;;2.54;;
71172;SDS011;58875;51.996;4.504;2022-10-16T07:56:36;2.43;;;2.43;;
71172;SDS011;58875;51.996;4.504;2022-10-16T07:59:02;2.23;;;2.23;;
71172;SDS011;58875;51.996;4.504;2022-10-16T08:01:27;1.98;;;1.97;;
71172;SDS011;58875;51.996;4.504;2022-10-16T08:03:53;2.50;;;2.37;;
71172;SDS011;58875;51.996;4.504;2022-10-16T08:06:19;2.51;;;2.34;;
71172;SDS011;58875;51.996;4.504;2022-10-16T08:08:47;2.33;;;2.14;;
71172;SDS011;58875;51.996;4.504;2022-10-16T08:11:13;2.52;;;2.29;;
71172;SDS011;58875;51.996;4.504;2022-10-16T08:13:40;2.44;;;2.21;;
71172;SDS011;58875;51.996;4.504;2022-10-16T08:16:05;2.58;;;2.32;;
71172;SDS011;58875;51.996;4.504;2022-10-16T08:18:35;2.46;;;2.19;;
71172;SDS011;58875;51.996;4.504;2022-10-16T08:21:02;2.56;;;2.31;;
71172;SDS011;58875;51.996;4.504;2022-10-16T08:23:29;2.57;;;2.34;;
71172;SDS011;58875;51.996;4.504;2022-10-16T08:25:55;2.53;;;2.26;;
71172;SDS011;58875;51.996;4.504;2022-10-16T08:28:27;2.70;;;2.38;;
71172;SDS011;58875;51.996;4.504;2022-10-16T08:30:52;2.68;;;2.33;;
71172;SDS011;58875;51.996;4.504;2022-10-16T08:33:18;2.73;;;2.39;;
71172;SDS011;58875;51.996;4.504;2022-10-16T08:35:50;2.69;;;2.35;;
71172;SDS011;58875;51.996;4.504;2022-10-16T08:38:17;2.80;;;2.44;;
71172;SDS011;58875;51.996;4.504;2022-10-16T08:40:43;2.58;;;2.28;;
71172;SDS011;58875;51.996;4.504;2022-10-16T08:51:16;2.89;;;2.48;;
71172;SDS011;58875;51.996;4.504;2022-10-16T08:54:04;2.85;;;2.47;;
71172;SDS011;58875;51.996;4.504;2022-10-16T08:56:35;2.96;;;2.54;;
71172;SDS011;58875;51.996;4.504;2022-10-16T08:59:01;3.11;;;2.63;;
71172;SDS011;58875;51.996;4.504;2022-10-16T09:01:50;3.13;;;2.61;;
71172;SDS011;58875;51.996;4.504;2022-10-16T09:07:12;3.14;;;2.61;;
71172;SDS011;58875;51.996;4.504;2022-10-16T09:09:56;3.51;;;2.84;;
71172;SDS011;58875;51.996;4.504;2022-10-16T09:18:29;3.48;;;2.84;;
71172;SDS011;58875;51.996;4.504;2022-10-16T09:21:29;3.65;;;2.92;;
71172;SDS011;58875;51.996;4.504;2022-10-16T09:24:07;3.89;;;3.07;;
71172;SDS011;58875;51.996;4.504;2022-10-16T09:26:42;4.08;;;3.21;;
71172;SDS011;58875;51.996;4.504;2022-10-16T09:29:10;3.59;;;2.94;;
71172;SDS011;58875;51.996;4.504;2022-10-16T09:31:38;3.24;;;2.65;;
71172;SDS011;58875;51.996;4.504;2022-10-16T09:34:04;3.41;;;2.73;;
71172;SDS011;58875;51.996;4.504;2022-10-16T09:36:39;3.55;;;2.82;;
71172;SDS011;58875;51.996;4.504;2022-10-16T09:39:08;3.96;;;3.11;;
71172;SDS011;58875;51.996;4.504;2022-10-16T09:41:41;3.54;;;2.74;;
71172;SDS011;58875;51.996;4.504;2022-10-16T09:47:12;3.94;;;2.97;;
71172;SDS011;58875;51.996;4.504;2022-10-16T09:52:27;4.09;;;3.06;;
71172;SDS011;58875;51.996;4.504;2022-10-16T09:54:55;4.17;;;3.12;;
71172;SDS011;58875;51.996;4.504;2022-10-16T09:57:23;4.28;;;3.17;;
71172;SDS011;58875;51.996;4.504;2022-10-16T09:59:51;4.37;;;3.25;;
71172;SDS011;58875;51.996;4.504;2022-10-16T10:02:19;3.74;;;2.83;;
71172;SDS011;58875;51.996;4.504;2022-10-16T10:04:59;4.14;;;3.07;;
71172;SDS011;58875;51.996;4.504;2022-10-16T10:07:28;4.49;;;3.29;;
71172;SDS011;58875;51.996;4.504;2022-10-16T10:10:00;4.76;;;3.52;;
71172;SDS011;58875;51.996;4.504;2022-10-16T10:12:30;5.05;;;3.72;;
71172;SDS011;58875;51.996;4.504;2022-10-16T10:14:58;4.74;;;3.49;;
71172;SDS011;58875;51.996;4.504;2022-10-16T10:17:31;3.92;;;3.03;;
71172;SDS011;58875;51.996;4.504;2022-10-16T10:22:47;4.39;;;3.29;;
71172;SDS011;58875;51.996;4.504;2022-10-16T10:31:20;4.41;;;3.34;;
71172;SDS011;58875;51.996;4.504;2022-10-16T10:33:43;4.51;;;3.39;;
71172;SDS011;58875;51.996;4.504;2022-10-16T10:44:37;4.20;;;3.25;;
71172;SDS011;58875;51.996;4.504;2022-10-16T10:55:40;4.17;;;3.09;;
71172;SDS011;58875;51.996;4.504;2022-10-16T10:58:19;4.63;;;3.43;;
71172;SDS011;58875;51.996;4.504;2022-10-16T11:06:17;3.98;;;2.97;;
71172;SDS011;58875;51.996;4.504;2022-10-16T11:09:06;3.58;;;2.61;;
71172;SDS011;58875;51.996;4.504;2022-10-16T11:16:58;3.33;;;2.40;;
71172;SDS011;58875;51.996;4.504;2022-10-16T11:19:48;3.20;;;2.34;;
71172;SDS011;58875;51.996;4.504;2022-10-16T11:25:31;5.12;;;3.53;;
71172;SDS011;58875;51.996;4.504;2022-10-16T11:28:02;4.97;;;3.34;;
71172;SDS011;58875;51.996;4.504;2022-10-16T11:33:28;5.25;;;3.50;;
71172;SDS011;58875;51.996;4.504;2022-10-16T11:39:10;5.21;;;3.46;;
71172;SDS011;58875;51.996;4.504;2022-10-16T11:41:58;5.16;;;3.39;;
71172;SDS011;58875;51.996;4.504;2022-10-16T11:47:35;4.94;;;3.21;;
71172;SDS011;58875;51.996;4.504;2022-10-16T11:55:52;5.37;;;3.49;;
71172;SDS011;58875;51.996;4.504;2022-10-16T12:06:46;5.66;;;3.62;;
71172;SDS011;58875;51.996;4.504;2022-10-16T12:09:25;5.25;;;3.37;;
71172;SDS011;58875;51.996;4.504;2022-10-16T12:11:52;5.58;;;3.56;;
71172;SDS011;58875;51.996;4.504;2022-10-16T12:14:20;5.12;;;3.25;;
71172;SDS011;58875;51.996;4.504;2022-10-16T12:17:22;5.20;;;3.32;;
71172;SDS011;58875;51.996;4.504;2022-10-16T12:20:12;5.93;;;3.79;;
71172;SDS011;58875;51.996;4.504;2022-10-16T12:22:53;5.87;;;3.75;;
71172;SDS011;58875;51.996;4.504;2022-10-16T12:28:04;5.09;;;3.31;;
71172;SDS011;58875;51.996;4.504;2022-10-16T12:30:58;5.95;;;3.86;;
71172;SDS011;58875;51.996;4.504;2022-10-16T12:33:30;6.07;;;3.85;;
71172;SDS011;58875;51.996;4.504;2022-10-16T12:35:59;5.89;;;3.75;;
71172;SDS011;58875;51.996;4.504;2022-10-16T12:41:10;6.00;;;3.81;;
71172;SDS011;58875;51.996;4.504;2022-10-16T12:43:41;5.66;;;3.59;;
71172;SDS011;58875;51.996;4.504;2022-10-16T12:48:34;5.92;;;3.72;;
71172;SDS011;58875;51.996;4.504;2022-10-16T12:51:21;6.00;;;3.79;;
71172;SDS011;58875;51.996;4.504;2022-10-16T12:56:41;5.87;;;3.73;;
71172;SDS011;58875;51.996;4.504;2022-10-16T13:00:06;4.87;;;3.12;;
71172;SDS011;58875;51.996;4.504;2022-10-16T13:28:02;5.68;;;3.56;;
71172;SDS011;58875;51.996;4.504;2022-10-16T13:30:51;5.59;;;3.50;;
71172;SDS011;58875;51.996;4.504;2022-10-16T13:33:21;5.55;;;3.49;;
71172;SDS011;58875;51.996;4.504;2022-10-16T13:35:57;6.16;;;3.89;;
71172;SDS011;58875;51.996;4.504;2022-10-16T13:38:29;5.89;;;3.74;;
71172;SDS011;58875;51.996;4.504;2022-10-16T13:40:58;5.69;;;3.64;;
71172;SDS011;58875;51.996;4.504;2022-10-16T13:43:33;5.75;;;3.67;;
71172;SDS011;58875;51.996;4.504;2022-10-16T13:48:55;5.53;;;3.53;;
71172;SDS011;58875;51.996;4.504;2022-10-16T13:51:25;5.96;;;3.84;;
71172;SDS011;58875;51.996;4.504;2022-10-16T13:53:51;5.60;;;3.64;;
71172;SDS011;58875;51.996;4.504;2022-10-16T13:56:18;5.54;;;3.62;;
71172;SDS011;58875;51.996;4.504;2022-10-16T13:58:57;5.50;;;3.58;;
71172;SDS011;58875;51.996;4.504;2022-10-16T14:01:47;5.70;;;3.73;;
71172;SDS011;58875;51.996;4.504;2022-10-16T14:04:13;5.66;;;3.72;;
71172;SDS011;58875;51.996;4.504;2022-10-16T14:06:41;5.01;;;3.35;;
71172;SDS011;58875;51.996;4.504;2022-10-16T14:09:15;4.90;;;3.31;;
71172;SDS011;58875;51.996;4.504;2022-10-16T14:11:50;5.41;;;3.68;;
71172;SDS011;58875;51.996;4.504;2022-10-16T14:14:20;4.32;;;3.00;;
71172;SDS011;58875;51.996;4.504;2022-10-16T14:16:48;4.94;;;3.45;;
71172;SDS011;58875;51.996;4.504;2022-10-16T14:19:18;4.95;;;3.44;;
71172;SDS011;58875;51.996;4.504;2022-10-16T14:21:47;4.89;;;3.43;;
71172;SDS011;58875;51.996;4.504;2022-10-16T14:24:26;4.54;;;3.18;;
71172;SDS011;58875;51.996;4.504;2022-10-16T14:26:55;5.19;;;3.62;;
71172;SDS011;58875;51.996;4.504;2022-10-16T14:29:21;5.39;;;3.81;;
71172;SDS011;58875;51.996;4.504;2022-10-16T14:34:25;4.33;;;3.11;;
71172;SDS011;58875;51.996;4.504;2022-10-16T14:36:53;4.39;;;3.12;;
71172;SDS011;58875;51.996;4.504;2022-10-16T14:39:21;4.75;;;3.41;;
71172;SDS011;58875;51.996;4.504;2022-10-16T14:41:49;4.42;;;3.14;;
71172;SDS011;58875;51.996;4.504;2022-10-16T14:44:17;4.48;;;3.24;;
71172;SDS011;58875;51.996;4.504;2022-10-16T14:46:44;4.39;;;3.25;;
71172;SDS011;58875;51.996;4.504;2022-10-16T14:51:37;4.51;;;3.19;;
71172;SDS011;58875;51.996;4.504;2022-10-16T14:54:08;4.76;;;3.33;;
71172;SDS011;58875;51.996;4.504;2022-10-16T14:56:40;5.13;;;3.52;;
71172;SDS011;58875;51.996;4.504;2022-10-16T14:59:11;5.33;;;3.64;;
71172;SDS011;58875;51.996;4.504;2022-10-16T15:02:49;4.76;;;3.22;;
71172;SDS011;58875;51.996;4.504;2022-10-16T15:04:56;4.69;;;3.22;;
71172;SDS011;58875;51.996;4.504;2022-10-16T15:07:23;5.33;;;3.67;;
71172;SDS011;58875;51.996;4.504;2022-10-16T15:09:49;5.85;;;4.02;;
71172;SDS011;58875;51.996;4.504;2022-10-16T15:12:15;5.71;;;3.99;;
71172;SDS011;58875;51.996;4.504;2022-10-16T15:14:41;5.43;;;3.82;;
71172;SDS011;58875;51.996;4.504;2022-10-16T15:17:08;6.10;;;4.60;;
71172;SDS011;58875;51.996;4.504;2022-10-16T15:19:35;4.47;;;3.58;;
71172;SDS011;58875;51.996;4.504;2022-10-16T15:22:01;4.66;;;3.67;;
71172;SDS011;58875;51.996;4.504;2022-10-16T15:24:26;4.65;;;3.71;;
71172;SDS011;58875;51.996;4.504;2022-10-16T15:26:52;4.36;;;3.45;;
71172;SDS011;58875;51.996;4.504;2022-10-16T15:29:17;5.09;;;3.95;;
71172;SDS011;58875;51.996;4.504;2022-10-16T15:31:43;4.79;;;3.84;;
71172;SDS011;58875;51.996;4.504;2022-10-16T15:34:09;4.39;;;3.56;;
71172;SDS011;58875;51.996;4.504;2022-10-16T15:36:36;5.03;;;4.32;;
71172;SDS011;58875;51.996;4.504;2022-10-16T15:39:03;4.38;;;3.94;;
71172;SDS011;58875;51.996;4.504;2022-10-16T15:41:30;3.25;;;2.93;;
71172;SDS011;58875;51.996;4.504;2022-10-16T15:43:56;3.13;;;2.69;;
71172;SDS011;58875;51.996;4.504;2022-10-16T15:46:22;3.43;;;2.77;;
71172;SDS011;58875;51.996;4.504;2022-10-16T15:48:49;4.03;;;3.08;;
71172;SDS011;58875;51.996;4.504;2022-10-16T15:51:16;4.58;;;3.42;;
71172;SDS011;58875;51.996;4.504;2022-10-16T15:53:43;4.79;;;3.63;;
71172;SDS011;58875;51.996;4.504;2022-10-16T15:56:11;4.58;;;3.61;;
71172;SDS011;58875;51.996;4.504;2022-10-16T15:58:38;4.86;;;3.85;;
71172;SDS011;58875;51.996;4.504;2022-10-16T16:01:04;4.40;;;3.40;;
71172;SDS011;58875;51.996;4.504;2022-10-16T16:03:31;4.34;;;3.35;;
71172;SDS011;58875;51.996;4.504;2022-10-16T16:05:58;3.87;;;3.02;;
71172;SDS011;58875;51.996;4.504;2022-10-16T16:08:29;4.21;;;3.35;;
71172;SDS011;58875;51.996;4.504;2022-10-16T16:11:01;4.21;;;3.37;;
71172;SDS011;58875;51.996;4.504;2022-10-16T16:13:29;4.17;;;3.43;;
71172;SDS011;58875;51.996;4.504;2022-10-16T16:15:55;4.93;;;4.14;;
71172;SDS011;58875;51.996;4.504;2022-10-16T16:18:21;4.29;;;3.74;;
71172;SDS011;58875;51.996;4.504;2022-10-16T16:20:48;4.70;;;3.99;;
71172;SDS011;58875;51.996;4.504;2022-10-16T16:23:15;4.75;;;4.06;;
71172;SDS011;58875;51.996;4.504;2022-10-16T16:25:40;5.68;;;4.92;;
71172;SDS011;58875;51.996;4.504;2022-10-16T16:28:06;4.77;;;4.22;;
71172;SDS011;58875;51.996;4.504;2022-10-16T16:30:32;4.31;;;3.92;;
71172;SDS011;58875;51.996;4.504;2022-10-16T16:32:58;4.67;;;4.20;;
71172;SDS011;58875;51.996;4.504;2022-10-16T16:35:23;4.25;;;3.89;;
71172;SDS011;58875;51.996;4.504;2022-10-16T16:37:49;6.11;;;5.63;;
71172;SDS011;58875;51.996;4.504;2022-10-16T16:40:14;5.29;;;4.95;;
71172;SDS011;58875;51.996;4.504;2022-10-16T16:42:40;4.41;;;4.09;;
71172;SDS011;58875;51.996;4.504;2022-10-16T16:45:06;4.83;;;4.57;;
71172;SDS011;58875;51.996;4.504;2022-10-16T16:47:32;5.37;;;5.15;;
71172;SDS011;58875;51.996;4.504;2022-10-16T16:49:57;4.93;;;4.67;;
71172;SDS011;58875;51.996;4.504;2022-10-16T16:52:23;6.04;;;5.66;;
71172;SDS011;58875;51.996;4.504;2022-10-16T16:54:49;4.99;;;4.78;;
71172;SDS011;58875;51.996;4.504;2022-10-16T16:57:27;3.81;;;3.54;;
71172;SDS011;58875;51.996;4.504;2022-10-16T16:59:53;3.50;;;3.21;;
71172;SDS011;58875;51.996;4.504;2022-10-16T17:02:19;3.89;;;3.44;;
71172;SDS011;58875;51.996;4.504;2022-10-16T17:04:44;4.52;;;3.89;;
71172;SDS011;58875;51.996;4.504;2022-10-16T17:07:10;4.59;;;4.04;;
71172;SDS011;58875;51.996;4.504;2022-10-16T17:09:35;4.50;;;3.96;;
71172;SDS011;58875;51.996;4.504;2022-10-16T17:12:01;4.75;;;4.18;;
71172;SDS011;58875;51.996;4.504;2022-10-16T17:14:27;4.77;;;4.28;;
71172;SDS011;58875;51.996;4.504;2022-10-16T17:16:55;4.99;;;4.49;;
71172;SDS011;58875;51.996;4.504;2022-10-16T17:19:21;4.79;;;4.28;;
71172;SDS011;58875;51.996;4.504;2022-10-16T17:21:50;4.60;;;4.13;;
71172;SDS011;58875;51.996;4.504;2022-10-16T17:24:16;4.63;;;4.21;;
71172;SDS011;58875;51.996;4.504;2022-10-16T17:26:43;4.35;;;3.98;;
71172;SDS011;58875;51.996;4.504;2022-10-16T17:29:13;5.75;;;5.38;;